Time;durP1;ratioP1;P1;durP2;ratioP2;P2;SDS_P1;SDS_P2;PMS_P1;PMS_P2;Temp;Humidity;BMP_temperature;BMP_pressure;BME280_temperature;BME280_humidity;BME280_pressure;Samples;Min_cycle;Max_cycle;Signal;HPM_P1;HPM_P2
2023/10/23 00:01:35;;;;;;;9.10;5.60;;;7.50;99.90;;;;;;5120396;28;20047;-65
2023/10/23 00:04:01;;;;;;;7.13;4.78;;;7.50;99.90;;;;;;5107958;28;20112;-65
2023/10/23 00:06:27;;;;;;;6.95;5.53;;;7.40;99.90;;;;;;5122168;28;20043;-65
2023/10/23 00:08:53;;;;;;;7.75;5.47;;;7.40;99.90;;;;;;5121150;28;20046;-65
2023/10/23 00:11:27;;;;;;;6.68;5.10;;;7.40;99.90;;;;;;5123320;28;20043;-65
2023/10/23 00:13:53;;;;;;;6.18;4.90;;;7.40;99.90;;;;;;5120842;28;20058;-65
2023/10/23 00:16:19;;;;;;;7.30;4.95;;;7.40;99.90;;;;;;5109549;28;20048;-65
2023/10/23 00:18:45;;;;;;;6.70;4.95;;;7.30;99.90;;;;;;5121940;28;20544;-65
2023/10/23 00:21:10;;;;;;;6.97;5.20;;;7.30;99.90;;;;;;5122183;28;20043;-65
2023/10/23 00:23:36;;;;;;;6.68;5.07;;;7.20;99.90;;;;;;5122924;28;20087;-65
2023/10/23 00:26:02;;;;;;;9.73;5.40;;;7.20;99.90;;;;;;5121261;28;20040;-65
2023/10/23 00:28:28;;;;;;;7.13;5.03;;;7.20;99.90;;;;;;5122527;28;20042;-65
2023/10/23 00:30:53;;;;;;;6.88;4.97;;;7.20;99.90;;;;;;5120932;28;20059;-65
2023/10/23 00:33:19;;;;;;;6.45;5.03;;;7.20;99.90;;;;;;5121966;28;20069;-65
2023/10/23 00:35:45;;;;;;;6.68;4.85;;;7.20;99.90;;;;;;5121081;28;20054;-65
2023/10/23 00:38:10;;;;;;;6.95;4.78;;;7.10;99.90;;;;;;5120385;28;20069;-65
2023/10/23 00:40:36;;;;;;;6.35;4.80;;;7.10;99.90;;;;;;5128069;27;20040;-65
2023/10/23 00:43:19;;;;;;;5.88;4.93;;;7.10;99.90;;;;;;5119710;28;20050;-65
2023/10/23 00:46:14;;;;;;;8.02;5.38;;;7.10;99.90;;;;;;5123096;28;20065;-65
2023/10/23 00:48:40;;;;;;;7.10;5.65;;;7.10;99.90;;;;;;5121199;28;20036;-65
2023/10/23 00:51:06;;;;;;;7.97;4.93;;;7.10;99.90;;;;;;5121378;28;20043;-65
2023/10/23 00:53:35;;;;;;;6.93;5.22;;;7.00;99.90;;;;;;5122245;28;20074;-64
2023/10/23 00:56:04;;;;;;;7.70;5.13;;;7.00;99.90;;;;;;5121119;28;20044;-65
2023/10/23 00:58:32;;;;;;;7.50;4.90;;;7.10;99.90;;;;;;5122798;28;20059;-65
2023/10/23 01:01:00;;;;;;;8.13;5.30;;;7.20;99.90;;;;;;5120451;28;20122;-65
2023/10/23 01:03:26;;;;;;;7.25;5.20;;;7.20;99.90;;;;;;5107844;28;20059;-65
2023/10/23 01:05:52;;;;;;;8.40;5.18;;;7.20;99.90;;;;;;5120327;28;20047;-65
2023/10/23 01:08:18;;;;;;;6.43;5.20;;;7.20;99.90;;;;;;5121597;28;20522;-65
2023/10/23 01:10:45;;;;;;;9.38;5.47;;;7.20;99.90;;;;;;5122723;28;20078;-65
2023/10/23 01:13:12;;;;;;;6.85;5.38;;;7.20;99.90;;;;;;5120478;28;20039;-66
2023/10/23 01:15:38;;;;;;;6.28;5.00;;;7.10;99.90;;;;;;5117287;28;20036;-66
2023/10/23 01:18:04;;;;;;;5.80;5.10;;;7.10;99.90;;;;;;5113694;28;20088;-65
2023/10/23 01:20:30;;;;;;;7.43;5.57;;;7.10;99.90;;;;;;5121812;28;20047;-65
2023/10/23 01:23:01;;;;;;;6.50;4.85;;;6.30;99.90;;;;;;5121237;28;20043;-65
2023/10/23 01:25:28;;;;;;;7.50;5.15;;;7.00;99.90;;;;;;5121347;28;20123;-65
2023/10/23 01:27:54;;;;;;;6.43;5.03;;;7.10;99.90;;;;;;5122352;28;20055;-65
2023/10/23 01:30:20;;;;;;;8.77;5.43;;;7.10;99.90;;;;;;5119965;28;20101;-65
2023/10/23 01:32:46;;;;;;;8.13;5.80;;;7.10;99.90;;;;;;5104536;28;20051;-65
2023/10/23 01:35:12;;;;;;;6.75;5.03;;;7.20;99.90;;;;;;5119701;28;20053;-65
2023/10/23 01:37:40;;;;;;;6.88;4.78;;;7.20;99.90;;;;;;5122362;28;20101;-65
2023/10/23 01:40:06;;;;;;;7.55;5.20;;;7.10;99.90;;;;;;5121325;28;20044;-65
2023/10/23 01:42:32;;;;;;;6.25;4.78;;;7.10;99.90;;;;;;5102731;28;20102;-65
2023/10/23 01:44:58;;;;;;;7.68;5.35;;;7.00;99.90;;;;;;5123752;28;20044;-64
2023/10/23 01:47:25;;;;;;;5.90;4.82;;;7.00;99.90;;;;;;5118681;28;20040;-65
2023/10/23 01:49:51;;;;;;;6.65;4.68;;;7.00;99.90;;;;;;5112633;28;20047;-65
2023/10/23 01:52:17;;;;;;;7.97;4.90;;;7.00;99.90;;;;;;5105810;28;20059;-65
2023/10/23 01:54:45;;;;;;;7.40;5.22;;;7.00;99.90;;;;;;5097589;28;20088;-65
2023/10/23 01:57:14;;;;;;;8.65;5.68;;;7.10;99.90;;;;;;5106480;28;20507;-65
2023/10/23 01:59:40;;;;;;;8.02;5.65;;;7.10;99.90;;;;;;5124862;28;20024;-65
2023/10/23 02:02:06;;;;;;;7.70;5.38;;;7.20;99.90;;;;;;5122828;28;20059;-65
2023/10/23 02:04:31;;;;;;;6.05;5.15;;;7.20;99.90;;;;;;5117330;28;20044;-65
2023/10/23 02:06:57;;;;;;;7.07;5.38;;;7.20;99.90;;;;;;5125741;28;20372;-65
2023/10/23 02:09:23;;;;;;;5.88;4.95;;;7.10;99.90;;;;;;5105409;28;20115;-65
2023/10/23 02:11:49;;;;;;;6.63;5.25;;;7.10;99.90;;;;;;5122856;28;20034;-65
2023/10/23 02:14:15;;;;;;;6.38;4.85;;;7.00;99.90;;;;;;5115038;28;20032;-65
2023/10/23 02:16:41;;;;;;;6.25;4.68;;;6.90;99.90;;;;;;5124741;28;20043;-65
2023/10/23 02:19:08;;;;;;;6.78;5.20;;;6.90;99.90;;;;;;5125668;28;20042;-65
2023/10/23 02:21:35;;;;;;;7.20;4.97;;;6.90;99.90;;;;;;5123761;28;20458;-65
2023/10/23 02:24:01;;;;;;;7.60;5.32;;;6.90;99.90;;;;;;5125473;28;20051;-65
2023/10/23 02:26:27;;;;;;;6.40;4.88;;;6.90;99.90;;;;;;5123026;28;20035;-65
2023/10/23 02:28:53;;;;;;;7.25;5.25;;;6.80;99.90;;;;;;5106835;28;20046;-65
2023/10/23 02:31:19;;;;;;;7.25;5.28;;;6.80;99.90;;;;;;5123768;28;20075;-65
2023/10/23 02:33:45;;;;;;;6.45;5.15;;;6.80;99.90;;;;;;5110850;28;20071;-65
2023/10/23 02:36:11;;;;;;;7.60;5.45;;;6.80;99.90;;;;;;5117569;28;20040;-65
2023/10/23 02:38:36;;;;;;;9.18;5.15;;;6.80;99.90;;;;;;5097436;28;20040;-65
2023/10/23 02:41:02;;;;;;;7.95;5.65;;;6.80;99.90;;;;;;5088358;28;20046;-65
2023/10/23 02:43:28;;;;;;;9.35;5.50;;;6.80;99.90;;;;;;5122683;28;20031;-66
2023/10/23 02:45:53;;;;;;;7.90;5.57;;;6.80;99.90;;;;;;5110976;28;20031;-65
2023/10/23 02:48:19;;;;;;;6.80;5.03;;;6.80;99.90;;;;;;5123291;28;20043;-65
2023/10/23 02:50:58;;;;;;;7.72;5.80;;;6.80;99.90;;;;;;5106156;28;20071;-66
2023/10/23 02:53:24;;;;;;;6.32;5.00;;;6.80;99.90;;;;;;5123254;28;20031;-65
2023/10/23 02:55:51;;;;;;;8.25;5.78;;;6.80;99.90;;;;;;5104638;28;20055;-65
2023/10/23 02:58:17;;;;;;;7.50;5.55;;;6.90;99.90;;;;;;5124592;28;20091;-65
2023/10/23 03:00:43;;;;;;;6.80;5.47;;;6.90;99.90;;;;;;5122860;28;20046;-65
2023/10/23 03:03:10;;;;;;;7.95;5.18;;;6.90;99.90;;;;;;5124707;28;20047;-65
2023/10/23 03:05:35;;;;;;;7.97;4.97;;;6.90;99.90;;;;;;5123382;28;20039;-65
2023/10/23 03:08:02;;;;;;;10.05;4.90;;;6.80;99.90;;;;;;5123749;28;20043;-65
2023/10/23 03:10:28;;;;;;;7.57;5.65;;;6.80;99.90;;;;;;5124085;28;20062;-65
2023/10/23 03:12:54;;;;;;;6.85;5.57;;;6.80;99.90;;;;;;5122280;28;20051;-65
2023/10/23 03:15:20;;;;;;;8.82;5.82;;;6.90;99.90;;;;;;5092481;28;20101;-65
2023/10/23 03:17:45;;;;;;;7.93;5.70;;;6.80;99.90;;;;;;5118043;28;20047;-65
2023/10/23 03:20:11;;;;;;;10.00;6.32;;;6.80;99.90;;;;;;5123897;28;20043;-65
2023/10/23 03:22:38;;;;;;;8.13;6.22;;;6.80;99.90;;;;;;5122560;28;20047;-65
2023/10/23 03:25:05;;;;;;;9.88;5.90;;;6.80;99.90;;;;;;5122732;28;20039;-65
2023/10/23 03:27:32;;;;;;;10.07;6.00;;;6.80;99.90;;;;;;5122475;28;20043;-65
2023/10/23 03:29:57;;;;;;;8.32;6.05;;;6.80;99.90;;;;;;5120733;28;20047;-65
2023/10/23 03:32:23;;;;;;;7.95;5.50;;;6.80;99.90;;;;;;5122363;28;20055;-65
2023/10/23 03:34:49;;;;;;;10.63;5.55;;;6.80;99.90;;;;;;5121739;28;20091;-65
2023/10/23 03:37:15;;;;;;;9.05;6.32;;;6.70;99.90;;;;;;5124039;28;20043;-65
2023/10/23 03:39:41;;;;;;;7.50;5.38;;;6.60;99.90;;;;;;5121609;28;20039;-65
2023/10/23 03:42:08;;;;;;;6.95;4.90;;;6.60;99.90;;;;;;5123378;28;20040;-65
2023/10/23 03:44:37;;;;;;;7.88;5.97;;;6.50;99.90;;;;;;5123454;28;20071;-65
2023/10/23 03:47:04;;;;;;;6.82;5.47;;;6.50;99.90;;;;;;5121703;28;20046;-65
2023/10/23 03:49:30;;;;;;;7.57;5.70;;;6.50;99.90;;;;;;5123349;28;20118;-65
2023/10/23 03:51:56;;;;;;;11.00;6.20;;;6.50;99.90;;;;;;5103095;28;20050;-65
2023/10/23 03:54:22;;;;;;;8.35;6.20;;;6.50;99.90;;;;;;5123646;28;20040;-65
2023/10/23 03:56:48;;;;;;;8.95;6.68;;;6.50;99.90;;;;;;5122359;28;20039;-65
2023/10/23 03:59:13;;;;;;;9.10;6.30;;;6.50;99.90;;;;;;5113299;28;20065;-65
2023/10/23 04:01:39;;;;;;;10.85;7.30;;;6.60;99.90;;;;;;5123050;28;20058;-65
2023/10/23 04:04:05;;;;;;;9.50;6.75;;;6.70;99.90;;;;;;5105234;28;20038;-65
2023/10/23 04:06:31;;;;;;;11.10;6.95;;;6.70;99.90;;;;;;5099300;28;20110;-65
2023/10/23 04:08:56;;;;;;;9.02;6.53;;;6.70;99.90;;;;;;5110098;28;20103;-65
2023/10/23 04:11:23;;;;;;;10.85;7.20;;;6.70;99.90;;;;;;5084760;28;20043;-65
2023/10/23 04:13:49;;;;;;;9.93;7.03;;;6.70;99.90;;;;;;5118053;28;20100;-65
2023/10/23 04:16:15;;;;;;;10.52;6.82;;;6.80;99.90;;;;;;5122853;28;20059;-65
2023/10/23 04:18:42;;;;;;;9.57;6.40;;;6.70;99.90;;;;;;5104209;28;20055;-65
2023/10/23 04:21:10;;;;;;;9.13;6.25;;;6.70;99.90;;;;;;5121828;28;20028;-65
2023/10/23 04:23:37;;;;;;;9.85;6.45;;;6.70;99.90;;;;;;5123267;28;20031;-65
2023/10/23 04:26:03;;;;;;;9.95;5.90;;;6.70;99.90;;;;;;5114500;28;20036;-65
2023/10/23 04:28:31;;;;;;;9.27;6.07;;;6.70;99.90;;;;;;5122597;28;20123;-65
2023/10/23 04:30:57;;;;;;;8.13;6.28;;;6.70;99.90;;;;;;5106084;28;20079;-65
2023/10/23 04:33:23;;;;;;;9.48;5.60;;;6.70;99.90;;;;;;5118374;28;20069;-65
2023/10/23 04:35:53;;;;;;;8.80;5.47;;;6.60;99.90;;;;;;5121829;28;20039;-65
2023/10/23 04:38:19;;;;;;;8.98;6.22;;;6.60;99.90;;;;;;5121836;28;20089;-65
2023/10/23 04:40:45;;;;;;;8.98;5.85;;;6.60;99.90;;;;;;5122486;28;20036;-65
2023/10/23 04:43:11;;;;;;;8.90;6.30;;;6.60;99.90;;;;;;5102753;28;20046;-66
2023/10/23 04:45:38;;;;;;;7.90;5.70;;;6.70;99.90;;;;;;5123099;28;20048;-66
2023/10/23 04:48:04;;;;;;;11.38;7.57;;;6.60;99.90;;;;;;5120513;28;20043;-66
2023/10/23 04:50:31;;;;;;;9.30;5.93;;;6.70;99.90;;;;;;5122517;28;20102;-66
2023/10/23 04:52:59;;;;;;;9.27;6.25;;;6.70;99.90;;;;;;5121632;28;20103;-66
2023/10/23 04:55:25;;;;;;;7.70;6.32;;;6.60;99.90;;;;;;5121916;28;20084;-66
2023/10/23 04:57:51;;;;;;;7.93;6.28;;;6.60;99.90;;;;;;5100940;28;20071;-65
2023/10/23 05:00:19;;;;;;;11.50;6.85;;;6.70;99.90;;;;;;5120815;28;20044;-66
2023/10/23 05:02:46;;;;;;;9.13;6.32;;;6.70;99.90;;;;;;5122486;28;20057;-66
2023/10/23 05:05:12;;;;;;;10.05;6.70;;;6.60;99.90;;;;;;5119582;28;20134;-66
2023/10/23 05:07:38;;;;;;;9.93;6.50;;;6.60;99.90;;;;;;5101746;28;20040;-65
2023/10/23 05:10:07;;;;;;;8.68;6.38;;;6.70;99.90;;;;;;5111175;28;20044;-66
2023/10/23 05:12:34;;;;;;;10.00;6.90;;;6.60;99.90;;;;;;5120921;28;20118;-66
2023/10/23 05:15:01;;;;;;;7.63;5.85;;;6.50;99.90;;;;;;5121832;28;20084;-65
2023/10/23 05:17:27;;;;;;;8.98;6.22;;;6.50;99.90;;;;;;5120500;28;20070;-66
2023/10/23 05:19:52;;;;;;;9.40;6.97;;;6.40;99.90;;;;;;5123752;28;20048;-66
2023/10/23 05:22:18;;;;;;;9.48;6.72;;;6.40;99.90;;;;;;5123224;28;20093;-66
2023/10/23 05:24:45;;;;;;;9.43;7.00;;;6.40;99.90;;;;;;5124976;28;20039;-66
2023/10/23 05:27:11;;;;;;;9.07;6.70;;;6.40;99.90;;;;;;5107594;28;20050;-66
2023/10/23 05:29:37;;;;;;;10.32;6.57;;;6.40;99.90;;;;;;5103496;28;20076;-66
2023/10/23 05:32:03;;;;;;;10.40;7.53;;;6.50;99.90;;;;;;5125324;28;20101;-66
2023/10/23 05:34:29;;;;;;;8.52;6.10;;;6.50;99.90;;;;;;5107916;28;20387;-66
2023/10/23 05:36:55;;;;;;;9.75;6.45;;;6.50;99.90;;;;;;5126378;28;20061;-66
2023/10/23 05:39:20;;;;;;;11.77;6.90;;;6.50;99.90;;;;;;5123876;28;20039;-66
2023/10/23 05:41:46;;;;;;;8.98;6.45;;;6.50;99.90;;;;;;5128039;27;20071;-66
2023/10/23 05:44:12;;;;;;;10.55;6.55;;;6.50;99.90;;;;;;5123906;28;20067;-66
2023/10/23 05:46:37;;;;;;;9.88;5.65;;;6.50;99.90;;;;;;5110817;28;20039;-66
2023/10/23 05:49:03;;;;;;;9.25;6.32;;;6.50;99.90;;;;;;5125452;28;20047;-66
2023/10/23 05:51:29;;;;;;;8.40;4.88;;;6.60;99.90;;;;;;5089193;28;20050;-66
2023/10/23 05:53:56;;;;;;;11.57;6.10;;;6.50;99.90;;;;;;5126238;28;20104;-66
2023/10/23 05:56:22;;;;;;;10.07;6.60;;;6.50;99.90;;;;;;5124239;28;20047;-66
2023/10/23 05:58:50;;;;;;;7.75;5.57;;;6.50;99.90;;;;;;5126083;28;20039;-66
2023/10/23 06:01:15;;;;;;;10.85;6.90;;;6.60;99.90;;;;;;5124544;28;20039;-66
2023/10/23 06:03:41;;;;;;;11.07;6.88;;;6.60;99.90;;;;;;5124964;28;20047;-67
2023/10/23 06:06:07;;;;;;;10.45;7.22;;;6.60;99.90;;;;;;5124950;28;20040;-66
2023/10/23 06:08:33;;;;;;;10.82;7.38;;;6.70;99.90;;;;;;5121819;28;20035;-66
2023/10/23 06:10:59;;;;;;;9.52;6.72;;;6.70;99.90;;;;;;5125089;28;20035;-66
2023/10/23 06:13:25;;;;;;;11.48;7.85;;;6.70;99.90;;;;;;5105380;28;20039;-66
2023/10/23 06:15:51;;;;;;;10.85;6.90;;;6.80;99.90;;;;;;5124574;28;20095;-66
2023/10/23 06:18:17;;;;;;;10.45;6.82;;;6.80;99.90;;;;;;5123660;28;20047;-65
2023/10/23 06:20:43;;;;;;;9.35;6.55;;;6.70;99.90;;;;;;5124390;28;20070;-66
2023/10/23 06:23:09;;;;;;;10.30;6.55;;;6.70;99.90;;;;;;5124517;28;20040;-66
2023/10/23 06:25:35;;;;;;;8.82;6.75;;;6.60;99.90;;;;;;5101608;28;20070;-66
2023/10/23 06:28:02;;;;;;;8.32;5.97;;;6.70;99.90;;;;;;5120807;28;20115;-66
2023/10/23 06:30:27;;;;;;;10.20;6.72;;;6.60;99.90;;;;;;5122443;28;20051;-66
2023/10/23 06:32:53;;;;;;;9.10;6.53;;;6.70;99.90;;;;;;5125088;28;20075;-66
2023/10/23 06:35:19;;;;;;;11.02;6.95;;;6.70;99.90;;;;;;5122667;28;20066;-66
2023/10/23 06:37:45;;;;;;;9.10;6.10;;;6.70;99.90;;;;;;5124543;28;20049;-66
2023/10/23 06:40:10;;;;;;;8.15;5.93;;;6.70;99.90;;;;;;5124338;28;20036;-66
2023/10/23 06:42:36;;;;;;;7.18;5.32;;;6.70;99.90;;;;;;5122745;28;20031;-66
2023/10/23 06:45:03;;;;;;;8.45;5.65;;;6.60;99.90;;;;;;5124963;28;20094;-66
2023/10/23 06:47:29;;;;;;;8.60;6.03;;;6.60;99.90;;;;;;5122665;28;20076;-66
2023/10/23 06:49:54;;;;;;;9.68;5.80;;;6.60;99.90;;;;;;5123411;28;20083;-66
2023/10/23 06:52:20;;;;;;;8.65;5.88;;;6.70;99.90;;;;;;5104034;28;20054;-66
2023/10/23 06:54:46;;;;;;;7.95;5.78;;;6.70;99.90;;;;;;5124461;28;20113;-66
2023/10/23 06:57:11;;;;;;;9.02;6.00;;;6.70;99.90;;;;;;5123629;28;20106;-66
2023/10/23 06:59:37;;;;;;;8.80;6.38;;;6.80;99.90;;;;;;5122440;28;20032;-66
2023/10/23 07:02:03;;;;;;;9.93;7.60;;;6.80;99.90;;;;;;5126012;27;20039;-66
2023/10/23 07:04:29;;;;;;;7.05;5.22;;;6.90;99.90;;;;;;5103992;28;20134;-67
2023/10/23 07:06:55;;;;;;;8.30;5.00;;;6.90;99.90;;;;;;5106558;28;20093;-66
2023/10/23 07:09:22;;;;;;;8.32;4.97;;;6.90;99.90;;;;;;5121938;28;20036;-66
2023/10/23 07:11:51;;;;;;;8.27;5.50;;;6.90;99.90;;;;;;5123956;28;20103;-67
2023/10/23 07:14:17;;;;;;;7.13;4.95;;;6.80;99.90;;;;;;5101745;28;20052;-67
2023/10/23 07:16:43;;;;;;;10.18;4.93;;;6.70;99.90;;;;;;5115696;28;20063;-67
2023/10/23 07:19:10;;;;;;;9.77;4.65;;;6.70;99.90;;;;;;5112133;28;20513;-67
2023/10/23 07:21:37;;;;;;;8.50;4.97;;;6.60;99.90;;;;;;5114728;27;20043;-67
2023/10/23 07:24:03;;;;;;;10.38;4.20;;;6.50;99.90;;;;;;5125339;27;20456;-67
2023/10/23 07:26:29;;;;;;;11.27;4.88;;;6.60;99.90;;;;;;5125633;27;20035;-67
2023/10/23 07:28:54;;;;;;;16.33;5.40;;;6.60;99.90;;;;;;5110390;28;20071;-68
2023/10/23 07:31:21;;;;;;;27.33;5.80;;;6.60;99.90;;;;;;5125704;27;20062;-67
2023/10/23 07:33:47;;;;;;;64.82;8.82;;;6.50;99.90;;;;;;5065366;28;20113;-68
2023/10/23 07:36:14;;;;;;;56.13;8.98;;;7.30;99.90;;;;;;5090715;28;20043;-67
2023/10/23 07:38:43;;;;;;;51.97;8.25;;;6.50;99.90;;;;;;5088915;28;20075;-67
2023/10/23 07:41:13;;;;;;;57.97;9.48;;;6.40;99.90;;;;;;5105878;28;20095;-67
2023/10/23 07:43:39;;;;;;;19.63;6.07;;;6.50;99.90;;;;;;5112996;28;20098;-67
2023/10/23 07:46:07;;;;;;;23.90;6.35;;;6.50;99.90;;;;;;5082224;28;20039;-67
2023/10/23 07:48:33;;;;;;;31.10;7.00;;;6.60;99.90;;;;;;5100854;28;20434;-67
2023/10/23 07:51:00;;;;;;;21.35;6.53;;;6.60;99.90;;;;;;5092935;28;20113;-68
2023/10/23 07:53:29;;;;;;;12.50;5.80;;;6.80;99.90;;;;;;5108666;28;20044;-68
2023/10/23 07:55:55;;;;;;;7.28;5.15;;;6.90;99.90;;;;;;5099575;28;20071;-68
2023/10/23 07:58:22;;;;;;;9.05;5.60;;;7.00;99.90;;;;;;5101290;28;20048;-68
2023/10/23 08:00:51;;;;;;;8.98;5.65;;;7.10;99.90;;;;;;5094933;28;20055;-68
2023/10/23 08:03:17;;;;;;;16.52;6.05;;;7.10;99.90;;;;;;5083035;28;20051;-67
2023/10/23 08:05:43;;;;;;;12.25;5.95;;;7.20;99.90;;;;;;5100582;28;20119;-67
2023/10/23 08:08:09;;;;;;;10.07;5.93;;;7.30;99.90;;;;;;5104121;27;20391;-68
2023/10/23 08:10:35;;;;;;;10.18;5.63;;;7.40;99.90;;;;;;5113302;27;20126;-67
2023/10/23 08:13:00;;;;;;;10.60;6.43;;;7.50;99.90;;;;;;5126892;27;20039;-67
2023/10/23 08:15:26;;;;;;;9.07;5.90;;;7.60;99.90;;;;;;5135559;27;20043;-67
2023/10/23 08:17:52;;;;;;;11.57;6.03;;;7.70;99.90;;;;;;5140562;27;20073;-67
2023/10/23 08:20:17;;;;;;;12.82;7.05;;;7.80;99.90;;;;;;5123353;27;20051;-67
2023/10/23 08:22:43;;;;;;;14.63;7.05;;;7.90;99.90;;;;;;5141322;27;20274;-67
2023/10/23 08:25:09;;;;;;;19.30;7.80;;;7.90;99.90;;;;;;5140496;27;20098;-67
2023/10/23 08:27:35;;;;;;;19.73;6.97;;;8.10;99.90;;;;;;5123300;27;20138;-66
2023/10/23 08:30:00;;;;;;;18.10;6.88;;;8.20;99.90;;;;;;5121810;27;20116;-67
2023/10/23 08:32:26;;;;;;;28.42;7.05;;;8.80;99.90;;;;;;5122793;27;20055;-67
2023/10/23 08:34:54;;;;;;;38.40;8.20;;;8.30;99.90;;;;;;5119537;28;20047;-67
2023/10/23 08:37:20;;;;;;;47.13;8.77;;;8.30;99.90;;;;;;5103163;28;20035;-68
2023/10/23 08:39:46;;;;;;;41.95;8.13;;;8.40;99.90;;;;;;5120688;28;20041;-67
2023/10/23 08:42:12;;;;;;;40.90;8.27;;;8.50;99.90;;;;;;5102394;28;20050;-67
2023/10/23 08:44:38;;;;;;;84.28;10.52;;;8.50;99.90;;;;;;5103478;28;20122;-67
2023/10/23 08:47:03;;;;;;;51.55;8.75;;;8.60;99.90;;;;;;5101033;28;20445;-67
2023/10/23 08:49:30;;;;;;;70.22;9.30;;;8.60;99.90;;;;;;5086304;28;20063;-67
2023/10/23 08:51:58;;;;;;;48.55;7.82;;;8.60;99.90;;;;;;5119570;28;20048;-67
2023/10/23 08:54:26;;;;;;;50.42;8.23;;;8.70;99.90;;;;;;5119919;28;20066;-67
2023/10/23 08:56:59;;;;;;;46.90;8.00;;;8.70;99.90;;;;;;5120106;28;20316;-67
2023/10/23 08:59:26;;;;;;;46.90;8.10;;;8.70;99.90;;;;;;5120243;28;20046;-67
2023/10/23 09:01:52;;;;;;;54.70;9.23;;;8.70;99.90;;;;;;5119757;28;20047;-67
2023/10/23 09:04:18;;;;;;;33.97;8.23;;;8.90;99.90;;;;;;5119840;28;20074;-67
2023/10/23 09:06:43;;;;;;;31.88;8.07;;;8.90;99.90;;;;;;5120643;28;20044;-67
2023/10/23 09:09:09;;;;;;;21.83;6.80;;;9.00;99.90;;;;;;5119139;28;20032;-67
2023/10/23 09:11:44;;;;;;;44.13;9.10;;;9.00;99.90;;;;;;5120777;28;20518;-66
2023/10/23 09:14:11;;;;;;;44.42;7.97;;;9.10;99.90;;;;;;5120658;28;20048;-68
2023/10/23 09:16:37;;;;;;;28.83;7.53;;;9.10;99.90;;;;;;5101390;28;20464;-66
2023/10/23 09:19:03;;;;;;;43.20;8.85;;;9.20;99.90;;;;;;5102756;28;20499;-67
2023/10/23 09:21:31;;;;;;;23.98;8.02;;;9.30;99.90;;;;;;5119554;28;20058;-66
2023/10/23 09:24:00;;;;;;;28.73;6.93;;;9.30;99.90;;;;;;5120610;28;20577;-68
2023/10/23 09:26:26;;;;;;;18.77;6.75;;;9.40;99.90;;;;;;5120022;28;20040;-67
2023/10/23 09:28:52;;;;;;;28.90;6.85;;;9.40;99.90;;;;;;5102158;28;20477;-67
2023/10/23 09:31:19;;;;;;;27.17;7.22;;;9.40;99.90;;;;;;5119167;28;20051;-67
2023/10/23 09:33:50;;;;;;;43.67;7.10;;;9.50;99.90;;;;;;5101219;28;20078;-67
2023/10/23 09:36:17;;;;;;;26.13;6.82;;;9.50;99.90;;;;;;5085642;28;20653;-67
2023/10/23 09:38:43;;;;;;;25.83;6.10;;;9.60;99.90;;;;;;5119461;28;20043;-67
2023/10/23 09:41:10;;;;;;;29.73;5.88;;;9.60;99.90;;;;;;5102725;28;20047;-68
2023/10/23 09:43:47;;;;;;;27.25;5.55;;;9.60;99.90;;;;;;5119956;28;20051;-67
2023/10/23 09:46:14;;;;;;;26.80;6.57;;;9.70;99.90;;;;;;5120041;28;20527;-67
2023/10/23 09:48:44;;;;;;;14.98;5.68;;;9.60;99.90;;;;;;5120597;28;20043;-67
2023/10/23 09:51:15;;;;;;;15.57;5.78;;;9.60;99.90;;;;;;5119617;28;20047;-67
2023/10/23 09:53:48;;;;;;;19.40;5.75;;;9.70;99.90;;;;;;5119402;28;20056;-67
2023/10/23 09:56:21;;;;;;;23.73;6.07;;;9.70;99.90;;;;;;5119148;28;20487;-67
2023/10/23 09:58:56;;;;;;;17.17;5.35;;;9.70;99.90;;;;;;5120168;28;20048;-67
2023/10/23 10:01:27;;;;;;;9.60;6.00;;;9.70;99.90;;;;;;5118967;28;20051;-66
2023/10/23 10:03:57;;;;;;;13.90;6.85;;;9.70;99.90;;;;;;5098290;28;20039;-68
2023/10/23 10:06:25;;;;;;;10.88;6.88;;;9.80;99.90;;;;;;5119855;28;20032;-67
2023/10/23 10:08:53;;;;;;;13.65;7.75;;;9.80;99.90;;;;;;5102476;28;20039;-67
2023/10/23 10:11:19;;;;;;;12.68;7.57;;;9.80;99.90;;;;;;5103889;28;20044;-67
2023/10/23 10:13:47;;;;;;;10.85;7.05;;;9.80;99.90;;;;;;5102312;28;20036;-67
2023/10/23 10:16:14;;;;;;;11.15;7.28;;;9.90;99.90;;;;;;5122304;28;20104;-67
2023/10/23 10:18:42;;;;;;;11.25;6.90;;;9.90;99.90;;;;;;5104703;28;20043;-67
2023/10/23 10:21:12;;;;;;;11.23;6.97;;;10.00;99.90;;;;;;5120318;28;20079;-67
2023/10/23 10:23:39;;;;;;;13.73;7.72;;;10.00;99.90;;;;;;5122059;28;20039;-67
2023/10/23 10:26:06;;;;;;;12.82;8.02;;;10.00;99.90;;;;;;5122368;28;20580;-68
2023/10/23 10:28:32;;;;;;;12.05;7.55;;;10.00;99.90;;;;;;5123027;28;20039;-67
2023/10/23 10:30:57;;;;;;;13.35;8.10;;;10.00;99.90;;;;;;5121594;28;20059;-67
2023/10/23 10:33:25;;;;;;;13.77;7.90;;;10.10;99.90;;;;;;5122952;28;20124;-68
2023/10/23 10:35:58;;;;;;;13.00;8.13;;;10.20;99.90;;;;;;5103659;28;20088;-67
2023/10/23 10:38:25;;;;;;;13.85;8.15;;;10.30;99.90;;;;;;5121669;28;20092;-67
2023/10/23 10:41:03;;;;;;;16.33;9.18;;;10.30;99.90;;;;;;5104314;28;20333;-68
2023/10/23 10:43:39;;;;;;;16.83;9.20;;;10.40;99.90;;;;;;5120925;28;20055;-68
2023/10/23 10:46:15;;;;;;;14.85;8.88;;;10.40;99.90;;;;;;5121854;28;20096;-68
2023/10/23 10:48:46;;;;;;;17.23;9.63;;;10.50;99.90;;;;;;5122766;28;20312;-67
2023/10/23 10:51:24;;;;;;;17.00;8.40;;;10.50;99.90;;;;;;5103794;27;20104;-68
2023/10/23 10:54:00;;;;;;;14.88;8.75;;;10.50;99.90;;;;;;5131753;27;20558;-68
2023/10/23 10:56:26;;;;;;;15.85;9.05;;;10.50;99.90;;;;;;5124199;27;20062;-68
2023/10/23 10:58:52;;;;;;;17.15;9.82;;;10.50;99.90;;;;;;5115164;27;20047;-68
2023/10/23 11:01:22;;;;;;;16.00;9.02;;;10.50;99.90;;;;;;5131153;27;20085;-67
2023/10/23 11:03:48;;;;;;;17.08;10.00;;;10.50;99.90;;;;;;5103642;28;20032;-68
2023/10/23 11:06:14;;;;;;;17.13;9.23;;;10.60;99.90;;;;;;5104160;28;20042;-67
2023/10/23 11:08:40;;;;;;;16.73;10.13;;;10.60;99.90;;;;;;5120681;28;20036;-67
2023/10/23 11:11:06;;;;;;;19.63;10.60;;;10.70;99.90;;;;;;5122592;28;20062;-67
2023/10/23 11:13:35;;;;;;;18.48;11.25;;;10.70;99.90;;;;;;5102860;28;20422;-67
2023/10/23 11:16:01;;;;;;;17.70;10.77;;;10.80;99.90;;;;;;5122080;28;20118;-67
2023/10/23 11:18:30;;;;;;;18.13;10.82;;;10.80;99.90;;;;;;5102912;28;20044;-67
2023/10/23 11:21:00;;;;;;;20.23;12.05;;;10.90;99.90;;;;;;5120800;28;20040;-68
2023/10/23 11:23:28;;;;;;;16.65;10.50;;;10.90;99.90;;;;;;5122221;28;20031;-67
2023/10/23 11:25:54;;;;;;;18.25;11.18;;;10.90;99.90;;;;;;5102322;28;20039;-67
2023/10/23 11:28:21;;;;;;;18.73;10.85;;;10.90;99.90;;;;;;5122149;28;20051;-68
2023/10/23 11:30:54;;;;;;;19.38;11.40;;;10.90;99.90;;;;;;5120010;28;20092;-68
2023/10/23 11:33:19;;;;;;;19.30;12.20;;;10.90;99.90;;;;;;5103326;28;20067;-68
2023/10/23 11:35:45;;;;;;;17.95;11.65;;;10.90;99.90;;;;;;5120374;28;20404;-67
2023/10/23 11:38:16;;;;;;;17.63;10.90;;;11.00;99.90;;;;;;5120679;28;20035;-68
2023/10/23 11:40:43;;;;;;;21.08;11.98;;;11.00;99.90;;;;;;5121496;28;20078;-67
2023/10/23 11:43:13;;;;;;;20.42;11.65;;;11.10;99.90;;;;;;5119882;27;20070;-67
2023/10/23 11:45:41;;;;;;;15.35;9.95;;;11.10;99.90;;;;;;5102823;28;20043;-67
2023/10/23 11:48:07;;;;;;;18.65;11.38;;;11.10;99.90;;;;;;5102525;28;20616;-67
2023/10/23 11:50:35;;;;;;;16.88;10.77;;;11.20;99.90;;;;;;5120945;28;20116;-67
2023/10/23 11:53:03;;;;;;;20.48;12.30;;;11.30;99.90;;;;;;5121834;28;20099;-67
2023/10/23 11:55:29;;;;;;;20.27;11.90;;;11.30;99.90;;;;;;5120381;28;20400;-67
2023/10/23 11:57:55;;;;;;;19.52;12.00;;;11.40;99.90;;;;;;5103521;28;20047;-67
2023/10/23 12:00:22;;;;;;;21.45;12.65;;;11.40;99.90;;;;;;5118962;28;20456;-67
2023/10/23 12:02:49;;;;;;;22.77;13.40;;;11.40;99.90;;;;;;5120417;28;20077;-67
2023/10/23 12:05:17;;;;;;;22.77;13.18;;;11.40;99.90;;;;;;5120048;28;20692;-67
2023/10/23 12:07:49;;;;;;;19.90;11.73;;;11.40;99.90;;;;;;5120423;28;20096;-67
2023/10/23 12:10:19;;;;;;;23.83;12.40;;;11.40;99.90;;;;;;5102999;28;20078;-67
2023/10/23 12:12:46;;;;;;;22.38;13.15;;;11.40;99.90;;;;;;5119517;28;20052;-67
2023/10/23 12:15:14;;;;;;;19.25;12.25;;;11.40;99.90;;;;;;5121292;28;20043;-67
2023/10/23 12:17:40;;;;;;;24.88;12.98;;;11.50;99.90;;;;;;5085241;28;20040;-67
2023/10/23 12:20:12;;;;;;;24.98;14.35;;;11.50;99.90;;;;;;5102352;28;20541;-68
2023/10/23 12:22:45;;;;;;;23.20;13.48;;;11.50;99.90;;;;;;5101756;28;20077;-67
2023/10/23 12:25:12;;;;;;;23.02;13.55;;;11.60;99.90;;;;;;5101667;28;20048;-67
2023/10/23 12:27:39;;;;;;;26.80;13.98;;;11.60;99.90;;;;;;5121512;28;20067;-67
2023/10/23 12:30:06;;;;;;;29.50;16.98;;;11.60;99.90;;;;;;5117794;28;20043;-67
2023/10/23 12:32:33;;;;;;;31.40;18.25;;;11.70;99.90;;;;;;5125676;27;20055;-67
2023/10/23 12:34:59;;;;;;;31.08;16.70;;;11.70;99.90;;;;;;5130401;27;20046;-67
2023/10/23 12:37:29;;;;;;;31.23;17.60;;;11.70;99.90;;;;;;5113379;27;20040;-67
2023/10/23 12:39:56;;;;;;;28.35;15.73;;;11.70;99.90;;;;;;5128796;27;20047;-67
2023/10/23 12:42:22;;;;;;;28.73;16.27;;;11.80;99.90;;;;;;5121128;27;20047;-67
2023/10/23 12:44:49;;;;;;;28.17;15.43;;;11.80;99.90;;;;;;5141424;27;20043;-67
2023/10/23 12:47:15;;;;;;;27.25;15.50;;;11.80;99.90;;;;;;5140164;27;20050;-67